Star Princess — ZCDD6 — position and weather

sailwx.info

Track history (hours):
 
Tides and Currents Weather Stations Pressure Air Temp Water Temp Dewpoint Dewpoint Depression Visibility Wind Speed Wind Dir Waves Ship Positions

Star Princess

Operator: Princess Cruises

Last reported at 2014-Aug-21 00:00 UTC. Time now 2014-Aug-23 19:47 UTC.
Position N 44°30' W 127°30'.

Length 289.6 m; beam 36 m; draft 8.4 m.

Type: Ship. MMSI: 310361000.

Wind from 340 at 17 knots

Waves 0.5 meters (2 feet), 2 second period

Barometer 1022.7 mb
Air temperature 18.5 ° C
Visibility: greater than 10.8 NM
Dewpoint 14.5 ° C
Water temperature 21.0 ° C

Date/timePositionNaut miles runAvg speedWind from/ knotsBaromVisibWave heightAir tempDewpointWater temp
2014-Aug-21 00:00N 44°30' W 127°30'16921.2 340 / 171022.710.8 0.518.514.521.0
2014-Aug-20 16:00N 41°54' W 126°00'19820.5 350 / 241014.3 0.5 0.518.518.014.0
2014-Aug-20 06:18N 38°51' W 124°21'1720.9
2014-Aug-20 05:28N 38°36' W 124°09'1920.8
2014-Aug-20 04:33N 38°23' W 123°52'1919.1
2014-Aug-20 03:33N 38°11' W 123°32'1918.7
2014-Aug-20 02:33N 38°01' W 123°12'1918.5
2014-Aug-20 01:33N 37°51' W 122°52'1414.0
2014-Aug-20 00:33N 37°47' W 122°36'9 8.6
2014-Aug-19 23:30N 37°48' W 122°24'0 0.0
2014-Aug-19 22:33N 37°48' W 122°24'0 0.0
2014-Aug-19 21:29N 37°48' W 122°24'0 0.0
2014-Aug-19 20:32N 37°48' W 122°24'0 0.0
2014-Aug-19 19:25N 37°48' W 122°24'0 0.0
2014-Aug-19 18:31N 37°48' W 122°24'0 0.0
2014-Aug-19 17:28N 37°48' W 122°24'0 0.0
2014-Aug-19 16:33N 37°48' W 122°24'0 0.0
2014-Aug-19 15:33N 37°48' W 122°24'0 0.0
2014-Aug-19 14:32N 37°48' W 122°24'0 0.0
2014-Aug-19 13:33N 37°48' W 122°24'7 6.9
2014-Aug-19 12:33N 37°47' W 122°33'1211.8
2014-Aug-19 11:33N 37°47' W 122°48'1313.0
2014-Aug-19 10:33N 37°54' W 123°02'1514.6
2014-Aug-19 09:33N 38°03' W 123°17'1514.8
2014-Aug-19 08:33N 38°09' W 123°33'1616.4
2014-Aug-19 07:33N 38°19' W 123°50'2019.8
2014-Aug-19 06:33N 38°34' W 124°06'38520.3
2014-Aug-18 11:33N 44°56' W 125°12'2121.0
2014-Aug-18 10:33N 45°17' W 125°13'2121.0
2014-Aug-18 09:33N 45°38' W 125°14'2120.8
2014-Aug-18 08:33N 45°59' W 125°15'2120.9
2014-Aug-18 07:33N 46°20' W 125°15'2121.2
2014-Aug-18 06:33N 46°41' W 125°17'2121.1
2014-Aug-18 05:33N 47°02' W 125°18'2220.8
2014-Aug-18 04:31N 47°24' W 125°19'2021.0
2014-Aug-18 03:33N 47°44' W 125°20'2120.9
2014-Aug-18 02:33N 48°05' W 125°15'2120.8
2014-Aug-18 01:33N 48°25' W 125°07'1717.3
2014-Aug-18 00:33N 48°30' W 124°42'53 8.7
2014-Aug-17 18:31N 48°25' W 123°24'0 0.0
2014-Aug-17 17:33N 48°25' W 123°24'0 0.0
2014-Aug-17 16:33N 48°25' W 123°24'0 0.0
2014-Aug-17 15:33N 48°25' W 123°24'0 0.0
2014-Aug-17 14:32N 48°25' W 123°24'0 0.0
2014-Aug-17 13:33N 48°25' W 123°24'6 6.2
2014-Aug-17 12:33N 48°19' W 123°25'1110.8
2014-Aug-17 11:33N 48°13' W 123°39'1312.7
2014-Aug-17 10:33N 48°14' W 123°58'1414.4
2014-Aug-17 09:33N 48°20' W 124°18'1515.4
2014-Aug-17 08:34N 48°27' W 124°39'1616.2
2014-Aug-17 07:33N 48°28' W 125°03'1717.4
2014-Aug-17 06:34N 48°35' W 125°27'1817.8
2014-Aug-17 05:34N 48°44' W 125°51'1818.3
2014-Aug-17 04:34N 48°55' W 126°13'1918.6
2014-Aug-17 03:33N 49°06' W 126°36'  
2014-Aug-12 08:15N 54°19' W 131°05'912.4
2014-Aug-12 07:33N 54°10' W 131°02'  
Track history (hours):
 
Tides and Currents Weather Stations Pressure Air Temp Water Temp Dewpoint Dewpoint Depression Visibility Wind Speed Wind Dir Waves Ship Positions

Star Princess

Operator: Princess Cruises

Last reported at 2014-Aug-21 00:00 UTC. Time now 2014-Aug-23 19:47 UTC.
Position N 44°30' W 127°30'.

Length 289.6 m; beam 36 m; draft 8.4 m.

Type: Ship. MMSI: 310361000.

Wind from 340 at 17 knots

Waves 0.5 meters (2 feet), 2 second period

Barometer 1022.7 mb
Air temperature 18.5 ° C
Visibility: greater than 10.8 NM
Dewpoint 14.5 ° C
Water temperature 21.0 ° C

Date/timePositionNaut miles runAvg speedWind from/ knotsBaromVisibWave heightAir tempDewpointWater temp
2014-Aug-21 00:00N 44°30' W 127°30'16921.2 340 / 171022.710.8 0.518.514.521.0
2014-Aug-20 16:00N 41°54' W 126°00'19820.5 350 / 241014.3 0.5 0.518.518.014.0
2014-Aug-20 06:18N 38°51' W 124°21'1720.9
2014-Aug-20 05:28N 38°36' W 124°09'1920.8
2014-Aug-20 04:33N 38°23' W 123°52'1919.1
2014-Aug-20 03:33N 38°11' W 123°32'1918.7
2014-Aug-20 02:33N 38°01' W 123°12'1918.5
2014-Aug-20 01:33N 37°51' W 122°52'1414.0
2014-Aug-20 00:33N 37°47' W 122°36'9 8.6
2014-Aug-19 23:30N 37°48' W 122°24'0 0.0
2014-Aug-19 22:33N 37°48' W 122°24'0 0.0
2014-Aug-19 21:29N 37°48' W 122°24'0 0.0
2014-Aug-19 20:32N 37°48' W 122°24'0 0.0
2014-Aug-19 19:25N 37°48' W 122°24'0 0.0
2014-Aug-19 18:31N 37°48' W 122°24'0 0.0
2014-Aug-19 17:28N 37°48' W 122°24'0 0.0
2014-Aug-19 16:33N 37°48' W 122°24'0 0.0
2014-Aug-19 15:33N 37°48' W 122°24'0 0.0
2014-Aug-19 14:32N 37°48' W 122°24'0 0.0
2014-Aug-19 13:33N 37°48' W 122°24'7 6.9
2014-Aug-19 12:33N 37°47' W 122°33'1211.8
2014-Aug-19 11:33N 37°47' W 122°48'1313.0
2014-Aug-19 10:33N 37°54' W 123°02'1514.6
2014-Aug-19 09:33N 38°03' W 123°17'1514.8
2014-Aug-19 08:33N 38°09' W 123°33'1616.4
2014-Aug-19 07:33N 38°19' W 123°50'2019.8
2014-Aug-19 06:33N 38°34' W 124°06'38520.3
2014-Aug-18 11:33N 44°56' W 125°12'2121.0
2014-Aug-18 10:33N 45°17' W 125°13'2121.0
2014-Aug-18 09:33N 45°38' W 125°14'2120.8
2014-Aug-18 08:33N 45°59' W 125°15'2120.9
2014-Aug-18 07:33N 46°20' W 125°15'2121.2
2014-Aug-18 06:33N 46°41' W 125°17'2121.1
2014-Aug-18 05:33N 47°02' W 125°18'2220.8
2014-Aug-18 04:31N 47°24' W 125°19'2021.0
2014-Aug-18 03:33N 47°44' W 125°20'2120.9
2014-Aug-18 02:33N 48°05' W 125°15'2120.8
2014-Aug-18 01:33N 48°25' W 125°07'1717.3
2014-Aug-18 00:33N 48°30' W 124°42'53 8.7
2014-Aug-17 18:31N 48°25' W 123°24'0 0.0
2014-Aug-17 17:33N 48°25' W 123°24'0 0.0
2014-Aug-17 16:33N 48°25' W 123°24'0 0.0
2014-Aug-17 15:33N 48°25' W 123°24'0 0.0
2014-Aug-17 14:32N 48°25' W 123°24'0 0.0
2014-Aug-17 13:33N 48°25' W 123°24'6 6.2
2014-Aug-17 12:33N 48°19' W 123°25'1110.8
2014-Aug-17 11:33N 48°13' W 123°39'1312.7
2014-Aug-17 10:33N 48°14' W 123°58'1414.4
2014-Aug-17 09:33N 48°20' W 124°18'1515.4
2014-Aug-17 08:34N 48°27' W 124°39'1616.2
2014-Aug-17 07:33N 48°28' W 125°03'1717.4
2014-Aug-17 06:34N 48°35' W 125°27'1817.8
2014-Aug-17 05:34N 48°44' W 125°51'1818.3
2014-Aug-17 04:34N 48°55' W 126°13'1918.6
2014-Aug-17 03:33N 49°06' W 126°36'  
2014-Aug-12 08:15N 54°19' W 131°05'912.4
2014-Aug-12 07:33N 54°10' W 131°02'  

Dump ship's entire track history